sensor_id;sensor_type;location;lat;lon;timestamp;pressure;altitude;pressure_sealevel;temperature;humidity
31005;BME280;17676;52.254;4.490;2023-05-19T00:01:06;102674.06;;;11.54;100.00
31005;BME280;17676;52.254;4.490;2023-05-19T00:03:32;102677.44;;;11.56;100.00
31005;BME280;17676;52.254;4.490;2023-05-19T00:06:00;102670.34;;;11.55;100.00
31005;BME280;17676;52.254;4.490;2023-05-19T00:08:29;102665.91;;;11.54;100.00
31005;BME280;17676;52.254;4.490;2023-05-19T00:10:56;102676.44;;;11.49;100.00
31005;BME280;17676;52.254;4.490;2023-05-19T00:13:22;102672.38;;;11.53;100.00
31005;BME280;17676;52.254;4.490;2023-05-19T00:15:47;102669.66;;;11.37;100.00
31005;BME280;17676;52.254;4.490;2023-05-19T00:18:16;102666.94;;;11.37;100.00
31005;BME280;17676;52.254;4.490;2023-05-19T00:20:42;102658.97;;;11.28;100.00
31005;BME280;17676;52.254;4.490;2023-05-19T00:23:07;102667.94;;;11.28;100.00
31005;BME280;17676;52.254;4.490;2023-05-19T00:25:33;102668.13;;;11.27;100.00
31005;BME280;17676;52.254;4.490;2023-05-19T00:27:59;102656.06;;;11.21;100.00
31005;BME280;17676;52.254;4.490;2023-05-19T00:30:24;102672.88;;;11.17;100.00
31005;BME280;17676;52.254;4.490;2023-05-19T00:32:50;102666.91;;;11.21;100.00
31005;BME280;17676;52.254;4.490;2023-05-19T00:35:16;102669.97;;;11.10;100.00
31005;BME280;17676;52.254;4.490;2023-05-19T00:37:41;102673.03;;;11.23;100.00
31005;BME280;17676;52.254;4.490;2023-05-19T00:40:09;102678.13;;;11.18;100.00
31005;BME280;17676;52.254;4.490;2023-05-19T00:42:34;102683.03;;;11.23;100.00
31005;BME280;17676;52.254;4.490;2023-05-19T00:45:00;102682.19;;;11.14;100.00
31005;BME280;17676;52.254;4.490;2023-05-19T00:47:25;102677.75;;;11.21;100.00
31005;BME280;17676;52.254;4.490;2023-05-19T00:49:51;102672.34;;;11.21;100.00
31005;BME280;17676;52.254;4.490;2023-05-19T00:52:16;102675.91;;;11.22;100.00
31005;BME280;17676;52.254;4.490;2023-05-19T00:54:43;102669.78;;;11.20;100.00
31005;BME280;17676;52.254;4.490;2023-05-19T00:57:08;102661.50;;;11.13;100.00
31005;BME280;17676;52.254;4.490;2023-05-19T00:59:34;102659.28;;;11.01;100.00
31005;BME280;17676;52.254;4.490;2023-05-19T01:01:59;102673.34;;;11.12;100.00
31005;BME280;17676;52.254;4.490;2023-05-19T01:04:27;102671.66;;;11.11;100.00
31005;BME280;17676;52.254;4.490;2023-05-19T01:06:54;102669.78;;;11.12;100.00
31005;BME280;17676;52.254;4.490;2023-05-19T01:09:21;102663.19;;;11.06;100.00
31005;BME280;17676;52.254;4.490;2023-05-19T01:11:47;102661.31;;;10.99;100.00
31005;BME280;17676;52.254;4.490;2023-05-19T01:14:12;102663.84;;;11.00;100.00
31005;BME280;17676;52.254;4.490;2023-05-19T01:16:58;102668.94;;;11.03;100.00
31005;BME280;17676;52.254;4.490;2023-05-19T01:29:07;102650.31;;;11.08;100.00
31005;BME280;17676;52.254;4.490;2023-05-19T01:31:37;102651.63;;;10.88;100.00
31005;BME280;17676;52.254;4.490;2023-05-19T01:34:05;102653.50;;;10.88;100.00
31005;BME280;17676;52.254;4.490;2023-05-19T01:36:31;102643.19;;;10.91;100.00
31005;BME280;17676;52.254;4.490;2023-05-19T01:38:58;102649.25;;;10.93;100.00
31005;BME280;17676;52.254;4.490;2023-05-19T01:41:25;102650.97;;;10.86;100.00
31005;BME280;17676;52.254;4.490;2023-05-19T01:43:50;102654.47;;;10.79;100.00
31005;BME280;17676;52.254;4.490;2023-05-19T01:46:17;102653.97;;;10.75;100.00
31005;BME280;17676;52.254;4.490;2023-05-19T01:48:43;102655.97;;;10.73;100.00
31005;BME280;17676;52.254;4.490;2023-05-19T01:51:09;102645.50;;;10.70;100.00
31005;BME280;17676;52.254;4.490;2023-05-19T01:53:35;102639.72;;;10.73;100.00
31005;BME280;17676;52.254;4.490;2023-05-19T01:56:01;102636.00;;;10.66;100.00
31005;BME280;17676;52.254;4.490;2023-05-19T01:58:44;102648.91;;;10.80;100.00
31005;BME280;17676;52.254;4.490;2023-05-19T02:04:22;102641.44;;;10.74;100.00
31005;BME280;17676;52.254;4.490;2023-05-19T02:12:31;102640.69;;;10.48;100.00
31005;BME280;17676;52.254;4.490;2023-05-19T02:15:24;102634.25;;;10.49;100.00
31005;BME280;17676;52.254;4.490;2023-05-19T02:17:54;102641.38;;;10.50;100.00
31005;BME280;17676;52.254;4.490;2023-05-19T02:20:20;102647.47;;;10.52;100.00
31005;BME280;17676;52.254;4.490;2023-05-19T02:22:46;102636.44;;;10.46;100.00
31005;BME280;17676;52.254;4.490;2023-05-19T02:25:12;102635.06;;;10.42;100.00
31005;BME280;17676;52.254;4.490;2023-05-19T02:27:42;102637.09;;;10.40;100.00
31005;BME280;17676;52.254;4.490;2023-05-19T02:30:17;102629.28;;;10.29;100.00
31005;BME280;17676;52.254;4.490;2023-05-19T02:32:42;102641.34;;;10.42;100.00
31005;BME280;17676;52.254;4.490;2023-05-19T02:35:11;102634.88;;;10.35;100.00
31005;BME280;17676;52.254;4.490;2023-05-19T02:37:37;102633.66;;;10.30;100.00
31005;BME280;17676;52.254;4.490;2023-05-19T02:40:03;102632.13;;;10.27;100.00
31005;BME280;17676;52.254;4.490;2023-05-19T02:42:28;102630.75;;;10.23;100.00
31005;BME280;17676;52.254;4.490;2023-05-19T02:44:54;102632.81;;;10.21;100.00
31005;BME280;17676;52.254;4.490;2023-05-19T02:47:19;102627.69;;;10.18;100.00
31005;BME280;17676;52.254;4.490;2023-05-19T02:49:45;102623.66;;;10.22;100.00
31005;BME280;17676;52.254;4.490;2023-05-19T02:52:10;102624.28;;;10.16;100.00
31005;BME280;17676;52.254;4.490;2023-05-19T02:54:36;102619.22;;;10.13;100.00
31005;BME280;17676;52.254;4.490;2023-05-19T02:57:01;102621.25;;;10.11;100.00
31005;BME280;17676;52.254;4.490;2023-05-19T02:59:27;102619.53;;;10.10;100.00
31005;BME280;17676;52.254;4.490;2023-05-19T03:01:58;102620.72;;;10.07;100.00
31005;BME280;17676;52.254;4.490;2023-05-19T03:04:24;102616.69;;;10.12;100.00
31005;BME280;17676;52.254;4.490;2023-05-19T03:06:49;102616.13;;;10.08;100.00
31005;BME280;17676;52.254;4.490;2023-05-19T03:09:14;102618.69;;;10.09;100.00
31005;BME280;17676;52.254;4.490;2023-05-19T03:11:40;102613.03;;;10.03;100.00
31005;BME280;17676;52.254;4.490;2023-05-19T03:14:05;102613.03;;;10.03;100.00
31005;BME280;17676;52.254;4.490;2023-05-19T03:16:33;102618.09;;;9.98;100.00
31005;BME280;17676;52.254;4.490;2023-05-19T03:18:59;102611.00;;;9.97;100.00
31005;BME280;17676;52.254;4.490;2023-05-19T03:21:24;102607.94;;;10.00;100.00
31005;BME280;17676;52.254;4.490;2023-05-19T03:23:50;102610.19;;;10.04;100.00
31005;BME280;17676;52.254;4.490;2023-05-19T03:26:15;102607.28;;;9.98;100.00
31005;BME280;17676;52.254;4.490;2023-05-19T03:28:41;102609.81;;;9.99;100.00
31005;BME280;17676;52.254;4.490;2023-05-19T03:31:06;102608.59;;;9.94;100.00
31005;BME280;17676;52.254;4.490;2023-05-19T03:33:31;102613.00;;;9.95;100.00
31005;BME280;17676;52.254;4.490;2023-05-19T03:35:57;102605.91;;;9.94;100.00
31005;BME280;17676;52.254;4.490;2023-05-19T03:38:23;102610.28;;;9.95;100.00
31005;BME280;17676;52.254;4.490;2023-05-19T03:40:49;102600.13;;;9.89;100.00
31005;BME280;17676;52.254;4.490;2023-05-19T03:43:14;102605.34;;;9.90;100.00
31005;BME280;17676;52.254;4.490;2023-05-19T03:45:40;102599.78;;;9.92;100.00
31005;BME280;17676;52.254;4.490;2023-05-19T03:48:05;102611.16;;;9.95;100.00
31005;BME280;17676;52.254;4.490;2023-05-19T03:50:31;102606.69;;;9.86;100.00
31005;BME280;17676;52.254;4.490;2023-05-19T03:52:58;102597.59;;;9.87;100.00
31005;BME280;17676;52.254;4.490;2023-05-19T03:55:23;102612.13;;;9.94;100.00
31005;BME280;17676;52.254;4.490;2023-05-19T03:57:50;102608.28;;;9.97;100.00
31005;BME280;17676;52.254;4.490;2023-05-19T04:00:17;102618.09;;;9.98;100.00
31005;BME280;17676;52.254;4.490;2023-05-19T04:02:42;102612.34;;;9.93;100.00
31005;BME280;17676;52.254;4.490;2023-05-19T04:05:09;102621.13;;;9.95;100.00
31005;BME280;17676;52.254;4.490;2023-05-19T04:07:34;102615.72;;;9.95;100.00
31005;BME280;17676;52.254;4.490;2023-05-19T04:10:03;102622.81;;;9.96;100.00
31005;BME280;17676;52.254;4.490;2023-05-19T04:12:28;102621.47;;;10.00;100.00
31005;BME280;17676;52.254;4.490;2023-05-19T04:14:54;102634.69;;;10.03;100.00
31005;BME280;17676;52.254;4.490;2023-05-19T04:17:19;102624.19;;;10.00;100.00
31005;BME280;17676;52.254;4.490;2023-05-19T04:19:45;102629.28;;;10.03;100.00
31005;BME280;17676;52.254;4.490;2023-05-19T04:22:11;102626.56;;;10.03;100.00
31005;BME280;17676;52.254;4.490;2023-05-19T04:24:36;102626.56;;;10.03;100.00
31005;BME280;17676;52.254;4.490;2023-05-19T04:27:01;102632.06;;;10.11;100.00
31005;BME280;17676;52.254;4.490;2023-05-19T04:29:29;102628.34;;;10.12;100.00
31005;BME280;17676;52.254;4.490;2023-05-19T04:31:54;102634.44;;;10.14;100.00
31005;BME280;17676;52.254;4.490;2023-05-19T04:34:21;102632.91;;;10.12;100.00
31005;BME280;17676;52.254;4.490;2023-05-19T04:36:46;102633.94;;;10.18;100.00
31005;BME280;17676;52.254;4.490;2023-05-19T04:39:12;102634.97;;;10.18;100.00
31005;BME280;17676;52.254;4.490;2023-05-19T04:41:38;102630.44;;;10.26;100.00
31005;BME280;17676;52.254;4.490;2023-05-19T04:44:05;102634.19;;;10.33;100.00
31005;BME280;17676;52.254;4.490;2023-05-19T04:46:31;102634.56;;;10.38;100.00
31005;BME280;17676;52.254;4.490;2023-05-19T04:48:58;102629.47;;;10.35;100.00
31005;BME280;17676;52.254;4.490;2023-05-19T04:51:25;102634.19;;;10.33;100.00
31005;BME280;17676;52.254;4.490;2023-05-19T04:53:54;102625.25;;;10.41;100.00
31005;BME280;17676;52.254;4.490;2023-05-19T04:56:19;102638.47;;;10.44;100.00
31005;BME280;17676;52.254;4.490;2023-05-19T04:58:46;102627.16;;;10.56;100.00
31005;BME280;17676;52.254;4.490;2023-05-19T05:01:11;102636.00;;;10.58;100.00
31005;BME280;17676;52.254;4.490;2023-05-19T05:03:38;102624.47;;;10.64;100.00
31005;BME280;17676;52.254;4.490;2023-05-19T05:06:03;102639.25;;;10.78;100.00
31005;BME280;17676;52.254;4.490;2023-05-19T05:08:29;102639.28;;;10.86;100.00
31005;BME280;17676;52.254;4.490;2023-05-19T05:10:54;102638.41;;;10.85;100.00
31005;BME280;17676;52.254;4.490;2023-05-19T05:13:21;102639.78;;;10.97;100.00
31005;BME280;17676;52.254;4.490;2023-05-19T05:15:47;102631.69;;;11.13;100.00
31005;BME280;17676;52.254;4.490;2023-05-19T05:18:14;102638.47;;;11.25;100.00
31005;BME280;17676;52.254;4.490;2023-05-19T05:20:43;102642.69;;;11.36;100.00
31005;BME280;17676;52.254;4.490;2023-05-19T05:23:09;102639.81;;;11.53;100.00
31005;BME280;17676;52.254;4.490;2023-05-19T05:25:39;102637.28;;;11.60;100.00
31005;BME280;17676;52.254;4.490;2023-05-19T05:28:05;102643.72;;;11.59;100.00
31005;BME280;17676;52.254;4.490;2023-05-19T05:30:32;102639.84;;;11.61;100.00
31005;BME280;17676;52.254;4.490;2023-05-19T05:32:58;102647.31;;;11.75;100.00
31005;BME280;17676;52.254;4.490;2023-05-19T05:35:23;102640.34;;;11.89;100.00
31005;BME280;17676;52.254;4.490;2023-05-19T05:37:49;102644.88;;;12.04;100.00
31005;BME280;17676;52.254;4.490;2023-05-19T05:40:14;102648.25;;;12.06;100.00
31005;BME280;17676;52.254;4.490;2023-05-19T05:42:40;102636.00;;;12.18;100.00
31005;BME280;17676;52.254;4.490;2023-05-19T05:45:06;102638.69;;;12.26;100.00
31005;BME280;17676;52.254;4.490;2023-05-19T05:47:32;102636.97;;;12.33;100.00
31005;BME280;17676;52.254;4.490;2023-05-19T05:49:58;102643.22;;;12.42;100.00
31005;BME280;17676;52.254;4.490;2023-05-19T05:52:28;102634.66;;;12.53;100.00
31005;BME280;17676;52.254;4.490;2023-05-19T05:54:54;102630.47;;;12.42;100.00
31005;BME280;17676;52.254;4.490;2023-05-19T05:57:20;102646.06;;;12.48;100.00
31005;BME280;17676;52.254;4.490;2023-05-19T05:59:46;102634.63;;;12.61;100.00
31005;BME280;17676;52.254;4.490;2023-05-19T06:02:11;102626.25;;;12.70;100.00
31005;BME280;17676;52.254;4.490;2023-05-19T06:04:37;102627.59;;;12.74;100.00
31005;BME280;17676;52.254;4.490;2023-05-19T06:07:02;102625.91;;;12.73;100.00
31005;BME280;17676;52.254;4.490;2023-05-19T06:09:28;102627.13;;;12.93;100.00
31005;BME280;17676;52.254;4.490;2023-05-19T06:11:54;102628.03;;;12.86;100.00
31005;BME280;17676;52.254;4.490;2023-05-19T06:14:20;102629.16;;;12.91;100.00
31005;BME280;17676;52.254;4.490;2023-05-19T06:16:45;102620.00;;;13.00;100.00
31005;BME280;17676;52.254;4.490;2023-05-19T06:19:12;102623.59;;;13.15;100.00
31005;BME280;17676;52.254;4.490;2023-05-19T06:21:38;102625.53;;;13.29;100.00
31005;BME280;17676;52.254;4.490;2023-05-19T06:24:03;102630.22;;;13.35;100.00
31005;BME280;17676;52.254;4.490;2023-05-19T06:26:29;102629.00;;;13.60;100.00
31005;BME280;17676;52.254;4.490;2023-05-19T06:28:54;102637.06;;;14.05;100.00
31005;BME280;17676;52.254;4.490;2023-05-19T06:31:20;102633.28;;;14.06;100.00
31005;BME280;17676;52.254;4.490;2023-05-19T06:33:46;102632.91;;;14.53;100.00
31005;BME280;17676;52.254;4.490;2023-05-19T06:36:11;102643.53;;;14.98;100.00
31005;BME280;17676;52.254;4.490;2023-05-19T06:38:38;102635.56;;;15.18;100.00
31005;BME280;17676;52.254;4.490;2023-05-19T06:41:03;102630.06;;;15.81;100.00
31005;BME280;17676;52.254;4.490;2023-05-19T06:43:29;102631.19;;;15.65;100.00
31005;BME280;17676;52.254;4.490;2023-05-19T06:45:54;102634.97;;;16.60;100.00
31005;BME280;17676;52.254;4.490;2023-05-19T06:48:20;102628.78;;;16.85;100.00
31005;BME280;17676;52.254;4.490;2023-05-19T06:50:45;102633.03;;;17.27;100.00
31005;BME280;17676;52.254;4.490;2023-05-19T06:53:11;102635.28;;;16.91;100.00
31005;BME280;17676;52.254;4.490;2023-05-19T06:55:36;102627.63;;;17.66;100.00
31005;BME280;17676;52.254;4.490;2023-05-19T06:58:01;102631.75;;;18.27;100.00
31005;BME280;17676;52.254;4.490;2023-05-19T07:00:27;102637.31;;;19.15;100.00
31005;BME280;17676;52.254;4.490;2023-05-19T07:02:52;102632.41;;;19.97;100.00
31005;BME280;17676;52.254;4.490;2023-05-19T07:05:18;102642.25;;;21.01;100.00
31005;BME280;17676;52.254;4.490;2023-05-19T07:07:43;102638.38;;;21.20;100.00
31005;BME280;17676;52.254;4.490;2023-05-19T07:10:09;102636.16;;;20.99;100.00
31005;BME280;17676;52.254;4.490;2023-05-19T07:12:34;102640.41;;;20.77;100.00
31005;BME280;17676;52.254;4.490;2023-05-19T07:15:00;102634.44;;;20.98;100.00
31005;BME280;17676;52.254;4.490;2023-05-19T07:17:25;102625.88;;;20.88;100.00
31005;BME280;17676;52.254;4.490;2023-05-19T07:19:51;102636.53;;;20.85;100.00
31005;BME280;17676;52.254;4.490;2023-05-19T07:22:16;102643.63;;;21.51;100.00
31005;BME280;17676;52.254;4.490;2023-05-19T07:24:41;102633.78;;;20.67;100.00
31005;BME280;17676;52.254;4.490;2023-05-19T07:27:08;102635.81;;;21.07;100.00
31005;BME280;17676;52.254;4.490;2023-05-19T07:29:34;102625.53;;;21.14;100.00
31005;BME280;17676;52.254;4.490;2023-05-19T07:31:59;102635.72;;;22.35;100.00
31005;BME280;17676;52.254;4.490;2023-05-19T07:34:25;102634.06;;;22.57;100.00
31005;BME280;17676;52.254;4.490;2023-05-19T07:36:50;102627.72;;;21.88;100.00
31005;BME280;17676;52.254;4.490;2023-05-19T07:39:16;102639.47;;;22.92;100.00
31005;BME280;17676;52.254;4.490;2023-05-19T07:41:42;102632.78;;;22.14;100.00
31005;BME280;17676;52.254;4.490;2023-05-19T07:44:07;102629.44;;;22.74;100.00
31005;BME280;17676;52.254;4.490;2023-05-19T07:46:36;102637.19;;;22.26;100.00
31005;BME280;17676;52.254;4.490;2023-05-19T07:49:02;102643.06;;;21.72;100.00
31005;BME280;17676;52.254;4.490;2023-05-19T07:51:28;102624.84;;;21.30;100.00
31005;BME280;17676;52.254;4.490;2023-05-19T07:53:53;102626.78;;;20.82;100.00
31005;BME280;17676;52.254;4.490;2023-05-19T07:56:19;102621.38;;;22.10;100.00
31005;BME280;17676;52.254;4.490;2023-05-19T07:58:45;102634.69;;;21.79;100.00
31005;BME280;17676;52.254;4.490;2023-05-19T08:01:10;102637.56;;;21.84;100.00
31005;BME280;17676;52.254;4.490;2023-05-19T08:03:36;102623.84;;;21.13;100.00
31005;BME280;17676;52.254;4.490;2023-05-19T08:06:01;102631.78;;;22.43;100.00
31005;BME280;17676;52.254;4.490;2023-05-19T08:08:27;102631.41;;;22.39;100.00
31005;BME280;17676;52.254;4.490;2023-05-19T08:10:52;102624.13;;;23.74;100.00
31005;BME280;17676;52.254;4.490;2023-05-19T08:13:24;102626.72;;;23.47;100.00
31005;BME280;17676;52.254;4.490;2023-05-19T08:15:49;102621.72;;;24.32;100.00
31005;BME280;17676;52.254;4.490;2023-05-19T08:18:15;102624.03;;;23.52;100.00
31005;BME280;17676;52.254;4.490;2023-05-19T08:20:40;102617.09;;;24.37;100.00
31005;BME280;17676;52.254;4.490;2023-05-19T08:23:06;102618.16;;;25.54;100.00
31005;BME280;17676;52.254;4.490;2023-05-19T08:25:31;102616.72;;;25.83;100.00
31005;BME280;17676;52.254;4.490;2023-05-19T08:27:57;102628.06;;;25.45;100.00
31005;BME280;17676;52.254;4.490;2023-05-19T08:30:22;102624.78;;;25.84;96.46
31005;BME280;17676;52.254;4.490;2023-05-19T08:32:47;102628.47;;;24.41;97.04
31005;BME280;17676;52.254;4.490;2023-05-19T08:35:13;102627.63;;;25.05;93.83
31005;BME280;17676;52.254;4.490;2023-05-19T08:37:38;102617.13;;;24.42;94.75
31005;BME280;17676;52.254;4.490;2023-05-19T08:40:04;102615.66;;;23.47;100.00
31005;BME280;17676;52.254;4.490;2023-05-19T08:42:30;102601.81;;;22.74;100.00
31005;BME280;17676;52.254;4.490;2023-05-19T08:44:58;102606.84;;;24.00;100.00
31005;BME280;17676;52.254;4.490;2023-05-19T08:47:24;102610.53;;;23.56;95.57
31005;BME280;17676;52.254;4.490;2023-05-19T08:49:52;102607.28;;;23.14;100.00
31005;BME280;17676;52.254;4.490;2023-05-19T08:58:00;102602.34;;;23.94;92.76
31005;BME280;17676;52.254;4.490;2023-05-19T09:00:26;102601.50;;;23.15;91.88
31005;BME280;17676;52.254;4.490;2023-05-19T09:02:52;102607.44;;;23.07;90.88
31005;BME280;17676;52.254;4.490;2023-05-19T09:05:19;102593.72;;;24.28;91.62
31005;BME280;17676;52.254;4.490;2023-05-19T09:07:44;102610.63;;;24.32;80.55
31005;BME280;17676;52.254;4.490;2023-05-19T09:10:11;102609.81;;;24.96;76.19
31005;BME280;17676;52.254;4.490;2023-05-19T09:12:44;102606.19;;;25.85;75.04
31005;BME280;17676;52.254;4.490;2023-05-19T09:15:11;102600.31;;;26.69;72.42
31005;BME280;17676;52.254;4.490;2023-05-19T09:17:38;102597.41;;;27.36;66.99
31005;BME280;17676;52.254;4.490;2023-05-19T09:20:04;102607.19;;;27.38;64.74
31005;BME280;17676;52.254;4.490;2023-05-19T09:22:45;102604.00;;;26.33;65.92
31005;BME280;17676;52.254;4.490;2023-05-19T09:25:24;102612.88;;;26.25;64.87
31005;BME280;17676;52.254;4.490;2023-05-19T09:27:52;102618.69;;;24.98;66.24
31005;BME280;17676;52.254;4.490;2023-05-19T09:30:18;102610.38;;;23.95;72.19
31005;BME280;17676;52.254;4.490;2023-05-19T09:32:45;102606.75;;;24.33;80.16
31005;BME280;17676;52.254;4.490;2023-05-19T09:35:13;102598.69;;;24.69;81.91
31005;BME280;17676;52.254;4.490;2023-05-19T09:37:42;102594.66;;;24.82;78.52
31005;BME280;17676;52.254;4.490;2023-05-19T09:40:08;102609.22;;;25.20;76.26
31005;BME280;17676;52.254;4.490;2023-05-19T09:42:38;102600.69;;;26.31;68.49
31005;BME280;17676;52.254;4.490;2023-05-19T09:45:05;102607.84;;;26.69;64.07
31005;BME280;17676;52.254;4.490;2023-05-19T09:47:37;102602.84;;;25.46;66.92
31005;BME280;17676;52.254;4.490;2023-05-19T09:50:05;102586.72;;;24.64;74.66
31005;BME280;17676;52.254;4.490;2023-05-19T09:52:36;102595.41;;;24.13;75.89
31005;BME280;17676;52.254;4.490;2023-05-19T09:55:03;102594.97;;;22.77;85.52
31005;BME280;17676;52.254;4.490;2023-05-19T09:57:34;102599.66;;;23.04;80.98
31005;BME280;17676;52.254;4.490;2023-05-19T10:00:09;102588.94;;;23.36;79.81
31005;BME280;17676;52.254;4.490;2023-05-19T10:02:45;102588.19;;;23.74;82.26
31005;BME280;17676;52.254;4.490;2023-05-19T10:05:18;102583.97;;;23.21;84.10
31005;BME280;17676;52.254;4.490;2023-05-19T10:07:52;102579.31;;;23.10;85.01
31005;BME280;17676;52.254;4.490;2023-05-19T10:10:19;102582.41;;;22.97;87.56
31005;BME280;17676;52.254;4.490;2023-05-19T10:12:46;102576.88;;;22.69;96.49
31005;BME280;17676;52.254;4.490;2023-05-19T10:15:13;102585.94;;;22.81;93.39
31005;BME280;17676;52.254;4.490;2023-05-19T10:17:40;102580.38;;;23.71;91.16
31005;BME280;17676;52.254;4.490;2023-05-19T10:20:08;102577.81;;;23.19;94.09
31005;BME280;17676;52.254;4.490;2023-05-19T10:22:33;102583.75;;;22.83;90.13
31005;BME280;17676;52.254;4.490;2023-05-19T10:24:59;102578.28;;;22.21;88.77
31005;BME280;17676;52.254;4.490;2023-05-19T10:27:25;102582.78;;;22.61;89.44
31005;BME280;17676;52.254;4.490;2023-05-19T10:29:54;102571.09;;;23.27;84.32
31005;BME280;17676;52.254;4.490;2023-05-19T10:32:25;102567.56;;;23.31;90.01
31005;BME280;17676;52.254;4.490;2023-05-19T10:40:10;102552.25;;;22.68;91.71
31005;BME280;17676;52.254;4.490;2023-05-19T10:43:01;102556.00;;;23.34;93.92
31005;BME280;17676;52.254;4.490;2023-05-19T10:45:29;102550.97;;;22.87;85.68
31005;BME280;17676;52.254;4.490;2023-05-19T10:48:00;102557.94;;;23.89;80.13
31005;BME280;17676;52.254;4.490;2023-05-19T10:50:25;102564.53;;;24.42;78.93
31005;BME280;17676;52.254;4.490;2023-05-19T10:52:55;102557.31;;;25.42;73.13
31005;BME280;17676;52.254;4.490;2023-05-19T10:55:54;102561.97;;;26.10;68.94
31005;BME280;17676;52.254;4.490;2023-05-19T10:58:47;102562.56;;;26.12;69.70
31005;BME280;17676;52.254;4.490;2023-05-19T11:01:14;102557.53;;;24.35;77.82
31005;BME280;17676;52.254;4.490;2023-05-19T11:03:51;102559.38;;;24.08;77.82
31005;BME280;17676;52.254;4.490;2023-05-19T11:06:31;102555.91;;;24.39;77.53
31005;BME280;17676;52.254;4.490;2023-05-19T11:09:08;102555.13;;;24.43;78.25
31005;BME280;17676;52.254;4.490;2023-05-19T11:12:02;102555.00;;;23.57;77.82
31005;BME280;17676;52.254;4.490;2023-05-19T11:14:27;102558.06;;;23.11;83.57
31005;BME280;17676;52.254;4.490;2023-05-19T11:16:57;102553.75;;;21.96;86.10
31005;BME280;17676;52.254;4.490;2023-05-19T11:19:35;102545.34;;;20.63;90.53
31005;BME280;17676;52.254;4.490;2023-05-19T11:22:11;102547.81;;;20.53;95.16
31005;BME280;17676;52.254;4.490;2023-05-19T11:24:43;102551.03;;;21.09;95.20
31005;BME280;17676;52.254;4.490;2023-05-19T11:27:26;102545.69;;;21.37;92.20
31005;BME280;17676;52.254;4.490;2023-05-19T11:29:55;102547.06;;;22.32;88.89
31005;BME280;17676;52.254;4.490;2023-05-19T11:32:31;102545.97;;;22.44;86.42
31005;BME280;17676;52.254;4.490;2023-05-19T11:35:00;102552.59;;;22.32;89.51
31005;BME280;17676;52.254;4.490;2023-05-19T11:37:26;102556.75;;;21.95;87.11
31005;BME280;17676;52.254;4.490;2023-05-19T11:39:53;102534.31;;;21.91;93.27
31005;BME280;17676;52.254;4.490;2023-05-19T11:42:19;102546.84;;;22.33;90.47
31005;BME280;17676;52.254;4.490;2023-05-19T11:44:44;102538.13;;;22.13;85.72
31005;BME280;17676;52.254;4.490;2023-05-19T11:47:11;102540.19;;;22.06;86.49
31005;BME280;17676;52.254;4.490;2023-05-19T11:49:36;102541.41;;;22.78;88.59
31005;BME280;17676;52.254;4.490;2023-05-19T11:52:03;102545.78;;;22.90;83.56
31005;BME280;17676;52.254;4.490;2023-05-19T11:54:30;102533.94;;;23.06;83.44
31005;BME280;17676;52.254;4.490;2023-05-19T11:56:59;102551.00;;;22.47;77.76
31005;BME280;17676;52.254;4.490;2023-05-19T11:59:35;102538.75;;;22.43;80.51
31005;BME280;17676;52.254;4.490;2023-05-19T12:04:41;102542.47;;;22.60;76.85
31005;BME280;17676;52.254;4.490;2023-05-19T12:07:06;102524.63;;;23.12;79.10
31005;BME280;17676;52.254;4.490;2023-05-19T12:09:32;102534.44;;;22.47;76.10
31005;BME280;17676;52.254;4.490;2023-05-19T12:11:57;102522.38;;;23.09;78.05
31005;BME280;17676;52.254;4.490;2023-05-19T12:14:25;102524.25;;;23.20;79.87
31005;BME280;17676;52.254;4.490;2023-05-19T12:16:51;102525.34;;;22.91;77.38
31005;BME280;17676;52.254;4.490;2023-05-19T12:19:16;102520.72;;;22.13;79.28
31005;BME280;17676;52.254;4.490;2023-05-19T12:21:42;102525.84;;;22.32;80.04
31005;BME280;17676;52.254;4.490;2023-05-19T12:24:08;102526.63;;;22.16;79.77
31005;BME280;17676;52.254;4.490;2023-05-19T12:26:34;102521.84;;;22.40;82.31
31005;BME280;17676;52.254;4.490;2023-05-19T12:29:00;102527.25;;;22.46;76.03
31005;BME280;17676;52.254;4.490;2023-05-19T12:31:25;102524.72;;;22.45;72.67
31005;BME280;17676;52.254;4.490;2023-05-19T12:33:51;102527.59;;;21.87;73.98
31005;BME280;17676;52.254;4.490;2023-05-19T12:36:17;102512.88;;;21.47;80.33
31005;BME280;17676;52.254;4.490;2023-05-19T12:38:43;102517.78;;;21.45;78.72
31005;BME280;17676;52.254;4.490;2023-05-19T12:41:12;102510.06;;;21.01;82.56
31005;BME280;17676;52.254;4.490;2023-05-19T12:43:37;102501.38;;;20.86;84.39
31005;BME280;17676;52.254;4.490;2023-05-19T12:46:11;102497.47;;;20.94;85.43
31005;BME280;17676;52.254;4.490;2023-05-19T12:48:46;102493.19;;;20.68;88.68
31005;BME280;17676;52.254;4.490;2023-05-19T12:51:18;102498.31;;;20.35;88.04
31005;BME280;17676;52.254;4.490;2023-05-19T12:53:45;102494.28;;;20.79;85.38
31005;BME280;17676;52.254;4.490;2023-05-19T12:56:14;102485.19;;;20.78;88.31
31005;BME280;17676;52.254;4.490;2023-05-19T12:58:41;102483.84;;;20.69;87.16
31005;BME280;17676;52.254;4.490;2023-05-19T13:01:15;102475.38;;;20.82;94.11
31005;BME280;17676;52.254;4.490;2023-05-19T13:03:41;102480.84;;;21.00;87.73
31005;BME280;17676;52.254;4.490;2023-05-19T13:06:07;102484.00;;;21.15;86.18
31005;BME280;17676;52.254;4.490;2023-05-19T13:08:36;102471.88;;;21.16;89.33
31005;BME280;17676;52.254;4.490;2023-05-19T13:11:01;102474.03;;;21.37;85.72
31005;BME280;17676;52.254;4.490;2023-05-19T13:13:27;102481.00;;;21.28;84.29
31005;BME280;17676;52.254;4.490;2023-05-19T13:15:53;102477.88;;;21.25;85.48